sensor_id;sensor_type;location;lat;lon;timestamp;temperature;humidity
28520;DHT22;15732;48.534;20.382;2024-03-08T00:00:10;5.40;99.90
28520;DHT22;15732;48.534;20.382;2024-03-08T00:02:39;5.40;99.90
28520;DHT22;15732;48.534;20.382;2024-03-08T00:05:08;5.50;99.90
28520;DHT22;15732;48.534;20.382;2024-03-08T00:07:39;5.40;99.90
28520;DHT22;15732;48.534;20.382;2024-03-08T00:10:08;5.40;99.90
28520;DHT22;15732;48.534;20.382;2024-03-08T00:12:56;5.50;99.90
28520;DHT22;15732;48.534;20.382;2024-03-08T00:15:27;5.50;99.90
28520;DHT22;15732;48.534;20.382;2024-03-08T00:17:56;5.50;99.90
28520;DHT22;15732;48.534;20.382;2024-03-08T00:20:27;5.40;99.90
28520;DHT22;15732;48.534;20.382;2024-03-08T00:22:54;5.40;99.90
28520;DHT22;15732;48.534;20.382;2024-03-08T00:25:27;5.40;99.90
28520;DHT22;15732;48.534;20.382;2024-03-08T00:27:54;5.40;99.90
28520;DHT22;15732;48.534;20.382;2024-03-08T00:30:23;5.50;99.90
28520;DHT22;15732;48.534;20.382;2024-03-08T00:32:51;5.50;99.90
28520;DHT22;15732;48.534;20.382;2024-03-08T00:35:19;5.60;99.90
28520;DHT22;15732;48.534;20.382;2024-03-08T00:37:46;5.60;99.90
28520;DHT22;15732;48.534;20.382;2024-03-08T00:40:13;5.60;99.90
28520;DHT22;15732;48.534;20.382;2024-03-08T00:42:40;5.60;99.90
28520;DHT22;15732;48.534;20.382;2024-03-08T00:45:10;5.60;99.90
28520;DHT22;15732;48.534;20.382;2024-03-08T00:47:37;5.60;99.90
28520;DHT22;15732;48.534;20.382;2024-03-08T00:50:06;5.60;99.90
28520;DHT22;15732;48.534;20.382;2024-03-08T00:52:34;5.60;99.90
28520;DHT22;15732;48.534;20.382;2024-03-08T00:55:02;5.60;99.90
28520;DHT22;15732;48.534;20.382;2024-03-08T00:57:29;5.70;99.90
28520;DHT22;15732;48.534;20.382;2024-03-08T00:59:57;5.60;99.90
28520;DHT22;15732;48.534;20.382;2024-03-08T01:02:28;5.70;99.90
28520;DHT22;15732;48.534;20.382;2024-03-08T01:04:59;5.70;99.90
28520;DHT22;15732;48.534;20.382;2024-03-08T01:07:26;5.70;99.90
28520;DHT22;15732;48.534;20.382;2024-03-08T01:09:54;5.70;99.90
28520;DHT22;15732;48.534;20.382;2024-03-08T01:12:25;5.70;99.90
28520;DHT22;15732;48.534;20.382;2024-03-08T01:14:52;5.70;99.90
28520;DHT22;15732;48.534;20.382;2024-03-08T01:17:19;5.60;99.90
28520;DHT22;15732;48.534;20.382;2024-03-08T01:19:46;5.60;99.90
28520;DHT22;15732;48.534;20.382;2024-03-08T01:22:13;5.60;99.90
28520;DHT22;15732;48.534;20.382;2024-03-08T01:24:40;5.60;99.90
28520;DHT22;15732;48.534;20.382;2024-03-08T01:27:07;5.70;99.90
28520;DHT22;15732;48.534;20.382;2024-03-08T01:29:35;5.60;99.90
28520;DHT22;15732;48.534;20.382;2024-03-08T01:32:03;5.60;99.90
28520;DHT22;15732;48.534;20.382;2024-03-08T01:34:30;5.60;99.90
28520;DHT22;15732;48.534;20.382;2024-03-08T01:36:57;5.60;99.90
28520;DHT22;15732;48.534;20.382;2024-03-08T01:39:28;5.60;99.90
28520;DHT22;15732;48.534;20.382;2024-03-08T01:41:56;5.60;99.90
28520;DHT22;15732;48.534;20.382;2024-03-08T01:44:23;5.60;99.90
28520;DHT22;15732;48.534;20.382;2024-03-08T01:46:51;5.50;99.90
28520;DHT22;15732;48.534;20.382;2024-03-08T01:49:20;5.60;99.90
28520;DHT22;15732;48.534;20.382;2024-03-08T01:51:49;5.50;99.90
28520;DHT22;15732;48.534;20.382;2024-03-08T01:54:21;5.60;99.90
28520;DHT22;15732;48.534;20.382;2024-03-08T01:56:52;5.50;99.90
28520;DHT22;15732;48.534;20.382;2024-03-08T01:59:24;5.60;99.90
28520;DHT22;15732;48.534;20.382;2024-03-08T02:01:56;5.50;99.90
28520;DHT22;15732;48.534;20.382;2024-03-08T02:04:30;5.50;99.90
28520;DHT22;15732;48.534;20.382;2024-03-08T02:07:02;5.50;99.90
28520;DHT22;15732;48.534;20.382;2024-03-08T02:09:31;5.50;99.90
28520;DHT22;15732;48.534;20.382;2024-03-08T02:11:59;5.50;99.90
28520;DHT22;15732;48.534;20.382;2024-03-08T02:14:26;5.50;99.90
28520;DHT22;15732;48.534;20.382;2024-03-08T02:16:54;5.50;99.90
28520;DHT22;15732;48.534;20.382;2024-03-08T02:19:27;5.50;99.90
28520;DHT22;15732;48.534;20.382;2024-03-08T02:21:58;5.50;99.90
28520;DHT22;15732;48.534;20.382;2024-03-08T02:24:30;5.50;99.90
28520;DHT22;15732;48.534;20.382;2024-03-08T02:26:57;5.50;99.90
28520;DHT22;15732;48.534;20.382;2024-03-08T02:29:24;5.50;99.90
28520;DHT22;15732;48.534;20.382;2024-03-08T02:31:51;5.50;99.90
28520;DHT22;15732;48.534;20.382;2024-03-08T02:34:19;5.40;99.90
28520;DHT22;15732;48.534;20.382;2024-03-08T02:36:50;5.50;99.90
28520;DHT22;15732;48.534;20.382;2024-03-08T02:39:17;5.50;99.90
28520;DHT22;15732;48.534;20.382;2024-03-08T02:41:46;5.50;99.90
28520;DHT22;15732;48.534;20.382;2024-03-08T02:44:13;5.50;99.90
28520;DHT22;15732;48.534;20.382;2024-03-08T02:46:41;5.50;99.90
28520;DHT22;15732;48.534;20.382;2024-03-08T02:49:12;5.60;99.90
28520;DHT22;15732;48.534;20.382;2024-03-08T02:51:39;5.60;99.90
28520;DHT22;15732;48.534;20.382;2024-03-08T02:54:07;5.60;99.90
28520;DHT22;15732;48.534;20.382;2024-03-08T02:56:34;5.60;99.90
28520;DHT22;15732;48.534;20.382;2024-03-08T02:59:01;5.60;99.90
28520;DHT22;15732;48.534;20.382;2024-03-08T03:01:33;5.60;99.90
28520;DHT22;15732;48.534;20.382;2024-03-08T03:04:01;5.60;99.90
28520;DHT22;15732;48.534;20.382;2024-03-08T03:06:29;5.60;99.90
28520;DHT22;15732;48.534;20.382;2024-03-08T03:08:57;5.60;99.90
28520;DHT22;15732;48.534;20.382;2024-03-08T03:11:28;5.50;99.90
28520;DHT22;15732;48.534;20.382;2024-03-08T03:13:55;5.50;99.90
28520;DHT22;15732;48.534;20.382;2024-03-08T03:16:23;5.50;99.90
28520;DHT22;15732;48.534;20.382;2024-03-08T03:18:54;5.50;99.90
28520;DHT22;15732;48.534;20.382;2024-03-08T03:21:28;5.40;99.90
28520;DHT22;15732;48.534;20.382;2024-03-08T03:24:01;5.50;99.90
28520;DHT22;15732;48.534;20.382;2024-03-08T03:26:33;5.40;99.90
28520;DHT22;15732;48.534;20.382;2024-03-08T03:29:00;5.40;99.90
28520;DHT22;15732;48.534;20.382;2024-03-08T03:31:32;5.40;99.90
28520;DHT22;15732;48.534;20.382;2024-03-08T03:34:00;5.40;99.90
28520;DHT22;15732;48.534;20.382;2024-03-08T03:36:32;5.40;99.90
28520;DHT22;15732;48.534;20.382;2024-03-08T03:39:04;5.40;99.90
28520;DHT22;15732;48.534;20.382;2024-03-08T03:41:53;5.40;99.90
28520;DHT22;15732;48.534;20.382;2024-03-08T03:44:20;5.40;99.90
28520;DHT22;15732;48.534;20.382;2024-03-08T03:46:52;5.40;99.90
28520;DHT22;15732;48.534;20.382;2024-03-08T03:49:24;5.40;99.90
28520;DHT22;15732;48.534;20.382;2024-03-08T03:51:53;5.40;99.90
28520;DHT22;15732;48.534;20.382;2024-03-08T03:54:20;5.40;99.90
28520;DHT22;15732;48.534;20.382;2024-03-08T03:56:48;5.40;99.90
28520;DHT22;15732;48.534;20.382;2024-03-08T03:59:19;5.50;99.90
28520;DHT22;15732;48.534;20.382;2024-03-08T04:01:46;5.50;99.90
28520;DHT22;15732;48.534;20.382;2024-03-08T04:04:14;5.60;99.90
28520;DHT22;15732;48.534;20.382;2024-03-08T04:06:41;5.70;99.90
28520;DHT22;15732;48.534;20.382;2024-03-08T04:09:08;5.70;99.90
28520;DHT22;15732;48.534;20.382;2024-03-08T04:11:36;5.80;99.90
28520;DHT22;15732;48.534;20.382;2024-03-08T04:14:03;5.80;99.90
28520;DHT22;15732;48.534;20.382;2024-03-08T04:16:32;5.70;99.90
28520;DHT22;15732;48.534;20.382;2024-03-08T04:18:59;5.80;99.90
28520;DHT22;15732;48.534;20.382;2024-03-08T04:21:26;5.80;99.90
28520;DHT22;15732;48.534;20.382;2024-03-08T04:23:53;5.70;99.90
28520;DHT22;15732;48.534;20.382;2024-03-08T04:26:21;5.70;99.90
28520;DHT22;15732;48.534;20.382;2024-03-08T04:28:52;5.70;99.90
28520;DHT22;15732;48.534;20.382;2024-03-08T04:31:20;5.70;99.90
28520;DHT22;15732;48.534;20.382;2024-03-08T04:33:48;5.70;99.90
28520;DHT22;15732;48.534;20.382;2024-03-08T04:36:15;5.70;99.90
28520;DHT22;15732;48.534;20.382;2024-03-08T04:38:42;5.70;99.90
28520;DHT22;15732;48.534;20.382;2024-03-08T04:41:09;5.70;99.90
28520;DHT22;15732;48.534;20.382;2024-03-08T04:43:36;5.70;99.90
28520;DHT22;15732;48.534;20.382;2024-03-08T04:46:03;5.70;99.90
28520;DHT22;15732;48.534;20.382;2024-03-08T04:48:32;5.60;99.90
28520;DHT22;15732;48.534;20.382;2024-03-08T04:50:59;5.50;99.90
28520;DHT22;15732;48.534;20.382;2024-03-08T04:53:26;5.50;99.90
28520;DHT22;15732;48.534;20.382;2024-03-08T04:55:53;5.30;99.90
28520;DHT22;15732;48.534;20.382;2024-03-08T04:58:21;5.30;99.90
28520;DHT22;15732;48.534;20.382;2024-03-08T05:00:48;5.30;99.90
28520;DHT22;15732;48.534;20.382;2024-03-08T05:03:17;5.30;99.90
28520;DHT22;15732;48.534;20.382;2024-03-08T05:05:44;5.30;99.90
28520;DHT22;15732;48.534;20.382;2024-03-08T05:08:11;5.40;99.90
28520;DHT22;15732;48.534;20.382;2024-03-08T05:10:38;5.40;99.90
28520;DHT22;15732;48.534;20.382;2024-03-08T05:13:09;5.40;99.90
28520;DHT22;15732;48.534;20.382;2024-03-08T05:15:37;5.50;99.90
28520;DHT22;15732;48.534;20.382;2024-03-08T05:18:05;5.50;99.90
28520;DHT22;15732;48.534;20.382;2024-03-08T05:20:33;5.40;99.90
28520;DHT22;15732;48.534;20.382;2024-03-08T05:23:00;5.40;99.90
28520;DHT22;15732;48.534;20.382;2024-03-08T05:25:27;5.40;99.90
28520;DHT22;15732;48.534;20.382;2024-03-08T05:27:54;5.50;99.90
28520;DHT22;15732;48.534;20.382;2024-03-08T05:30:22;5.50;99.90
28520;DHT22;15732;48.534;20.382;2024-03-08T05:32:53;5.50;99.90
28520;DHT22;15732;48.534;20.382;2024-03-08T05:35:20;5.50;99.90
28520;DHT22;15732;48.534;20.382;2024-03-08T05:37:47;5.50;99.90
28520;DHT22;15732;48.534;20.382;2024-03-08T05:40:15;5.50;99.90
28520;DHT22;15732;48.534;20.382;2024-03-08T05:42:42;5.50;99.90
28520;DHT22;15732;48.534;20.382;2024-03-08T05:45:10;5.50;99.90
28520;DHT22;15732;48.534;20.382;2024-03-08T05:47:39;5.40;99.90
28520;DHT22;15732;48.534;20.382;2024-03-08T05:50:08;5.50;99.90
28520;DHT22;15732;48.534;20.382;2024-03-08T05:52:37;5.50;99.90
28520;DHT22;15732;48.534;20.382;2024-03-08T05:55:05;5.50;99.90
28520;DHT22;15732;48.534;20.382;2024-03-08T05:57:34;5.40;99.90
28520;DHT22;15732;48.534;20.382;2024-03-08T06:00:06;5.40;99.90
28520;DHT22;15732;48.534;20.382;2024-03-08T06:02:33;5.40;99.90
28520;DHT22;15732;48.534;20.382;2024-03-08T06:05:00;5.40;99.90
28520;DHT22;15732;48.534;20.382;2024-03-08T06:07:28;5.30;99.90
28520;DHT22;15732;48.534;20.382;2024-03-08T06:09:56;5.40;99.90
28520;DHT22;15732;48.534;20.382;2024-03-08T06:12:27;5.40;99.90
28520;DHT22;15732;48.534;20.382;2024-03-08T06:14:59;5.40;99.90
28520;DHT22;15732;48.534;20.382;2024-03-08T06:17:30;5.40;99.90
28520;DHT22;15732;48.534;20.382;2024-03-08T06:19:57;5.40;99.90
28520;DHT22;15732;48.534;20.382;2024-03-08T06:22:25;5.40;99.90
28520;DHT22;15732;48.534;20.382;2024-03-08T06:24:56;5.50;99.90
28520;DHT22;15732;48.534;20.382;2024-03-08T06:27:23;5.40;99.90
28520;DHT22;15732;48.534;20.382;2024-03-08T06:29:54;5.50;99.90
28520;DHT22;15732;48.534;20.382;2024-03-08T06:32:21;5.50;99.90
28520;DHT22;15732;48.534;20.382;2024-03-08T06:34:49;5.60;99.90
28520;DHT22;15732;48.534;20.382;2024-03-08T06:37:16;5.60;99.90
28520;DHT22;15732;48.534;20.382;2024-03-08T06:39:48;5.60;99.90
28520;DHT22;15732;48.534;20.382;2024-03-08T06:42:15;5.60;99.90
28520;DHT22;15732;48.534;20.382;2024-03-08T06:44:43;5.70;99.90
28520;DHT22;15732;48.534;20.382;2024-03-08T06:47:16;5.70;99.90
28520;DHT22;15732;48.534;20.382;2024-03-08T06:49:43;5.70;99.90
28520;DHT22;15732;48.534;20.382;2024-03-08T06:52:14;5.70;99.90
28520;DHT22;15732;48.534;20.382;2024-03-08T06:54:43;5.70;99.90
28520;DHT22;15732;48.534;20.382;2024-03-08T06:57:10;5.80;99.90
28520;DHT22;15732;48.534;20.382;2024-03-08T06:59:37;5.70;99.90
28520;DHT22;15732;48.534;20.382;2024-03-08T07:02:05;5.70;99.90
28520;DHT22;15732;48.534;20.382;2024-03-08T07:04:31;5.80;99.90
28520;DHT22;15732;48.534;20.382;2024-03-08T07:07:00;5.80;99.90
28520;DHT22;15732;48.534;20.382;2024-03-08T07:09:28;5.80;99.90
28520;DHT22;15732;48.534;20.382;2024-03-08T07:11:55;5.80;99.90
28520;DHT22;15732;48.534;20.382;2024-03-08T07:14:23;5.90;99.90
28520;DHT22;15732;48.534;20.382;2024-03-08T07:16:50;5.90;99.90
28520;DHT22;15732;48.534;20.382;2024-03-08T07:19:18;5.90;99.90
28520;DHT22;15732;48.534;20.382;2024-03-08T07:21:45;6.00;99.90
28520;DHT22;15732;48.534;20.382;2024-03-08T07:24:16;6.00;99.90
28520;DHT22;15732;48.534;20.382;2024-03-08T07:26:43;6.00;99.90
28520;DHT22;15732;48.534;20.382;2024-03-08T07:29:11;6.10;99.90
28520;DHT22;15732;48.534;20.382;2024-03-08T07:31:38;6.20;99.90
28520;DHT22;15732;48.534;20.382;2024-03-08T07:34:07;6.20;99.90
28520;DHT22;15732;48.534;20.382;2024-03-08T07:36:34;6.20;99.90
28520;DHT22;15732;48.534;20.382;2024-03-08T07:39:02;6.30;99.90
28520;DHT22;15732;48.534;20.382;2024-03-08T07:41:28;6.30;99.90
28520;DHT22;15732;48.534;20.382;2024-03-08T07:43:56;6.40;99.90
28520;DHT22;15732;48.534;20.382;2024-03-08T07:46:23;6.50;99.90
28520;DHT22;15732;48.534;20.382;2024-03-08T07:48:50;6.50;99.90
28520;DHT22;15732;48.534;20.382;2024-03-08T07:51:17;6.60;99.90
28520;DHT22;15732;48.534;20.382;2024-03-08T07:53:44;6.60;99.90
28520;DHT22;15732;48.534;20.382;2024-03-08T07:56:11;6.70;99.90
28520;DHT22;15732;48.534;20.382;2024-03-08T07:58:40;6.70;99.90
28520;DHT22;15732;48.534;20.382;2024-03-08T08:01:07;6.80;99.90
28520;DHT22;15732;48.534;20.382;2024-03-08T08:03:35;6.80;99.90
28520;DHT22;15732;48.534;20.382;2024-03-08T08:06:05;6.80;99.90
28520;DHT22;15732;48.534;20.382;2024-03-08T08:08:32;6.90;99.90
28520;DHT22;15732;48.534;20.382;2024-03-08T08:10:59;6.90;99.90
28520;DHT22;15732;48.534;20.382;2024-03-08T08:13:27;6.90;99.90
28520;DHT22;15732;48.534;20.382;2024-03-08T08:15:58;7.00;99.90
28520;DHT22;15732;48.534;20.382;2024-03-08T08:18:26;7.00;99.90
28520;DHT22;15732;48.534;20.382;2024-03-08T08:20:53;7.10;99.90
28520;DHT22;15732;48.534;20.382;2024-03-08T08:23:20;7.10;99.90
28520;DHT22;15732;48.534;20.382;2024-03-08T08:25:48;7.10;99.90
28520;DHT22;15732;48.534;20.382;2024-03-08T08:28:36;7.20;99.90
28520;DHT22;15732;48.534;20.382;2024-03-08T08:31:07;7.20;99.90
28520;DHT22;15732;48.534;20.382;2024-03-08T08:33:35;7.20;99.90
28520;DHT22;15732;48.534;20.382;2024-03-08T08:36:03;7.20;99.90
28520;DHT22;15732;48.534;20.382;2024-03-08T08:38:32;7.30;99.90
28520;DHT22;15732;48.534;20.382;2024-03-08T08:40:59;7.20;99.90
28520;DHT22;15732;48.534;20.382;2024-03-08T08:43:31;7.30;99.90
28520;DHT22;15732;48.534;20.382;2024-03-08T08:45:59;7.30;99.90
28520;DHT22;15732;48.534;20.382;2024-03-08T08:48:27;7.30;99.90
28520;DHT22;15732;48.534;20.382;2024-03-08T08:50:57;7.30;99.90
28520;DHT22;15732;48.534;20.382;2024-03-08T08:53:28;7.30;99.90
28520;DHT22;15732;48.534;20.382;2024-03-08T08:55:55;7.30;99.90
28520;DHT22;15732;48.534;20.382;2024-03-08T08:58:23;7.30;99.90
28520;DHT22;15732;48.534;20.382;2024-03-08T09:00:50;7.30;99.90
28520;DHT22;15732;48.534;20.382;2024-03-08T09:03:18;7.40;99.90
28520;DHT22;15732;48.534;20.382;2024-03-08T09:05:49;7.40;99.90
28520;DHT22;15732;48.534;20.382;2024-03-08T09:08:17;7.40;99.90
28520;DHT22;15732;48.534;20.382;2024-03-08T09:10:49;7.40;99.90
28520;DHT22;15732;48.534;20.382;2024-03-08T09:13:16;7.40;99.90
28520;DHT22;15732;48.534;20.382;2024-03-08T09:15:43;7.50;99.90
28520;DHT22;15732;48.534;20.382;2024-03-08T09:18:10;7.50;99.90
28520;DHT22;15732;48.534;20.382;2024-03-08T09:20:38;7.50;99.90
28520;DHT22;15732;48.534;20.382;2024-03-08T09:23:07;7.50;99.90
28520;DHT22;15732;48.534;20.382;2024-03-08T09:25:35;7.60;99.90
28520;DHT22;15732;48.534;20.382;2024-03-08T09:28:02;7.60;99.90
28520;DHT22;15732;48.534;20.382;2024-03-08T09:30:31;7.60;99.90
28520;DHT22;15732;48.534;20.382;2024-03-08T09:32:59;7.60;99.90
28520;DHT22;15732;48.534;20.382;2024-03-08T09:35:30;7.60;99.90
28520;DHT22;15732;48.534;20.382;2024-03-08T09:37:56;7.70;99.90
28520;DHT22;15732;48.534;20.382;2024-03-08T09:40:23;7.70;99.90
28520;DHT22;15732;48.534;20.382;2024-03-08T09:42:52;7.80;99.90
28520;DHT22;15732;48.534;20.382;2024-03-08T09:45:20;7.80;99.90
28520;DHT22;15732;48.534;20.382;2024-03-08T09:47:49;7.80;99.90
28520;DHT22;15732;48.534;20.382;2024-03-08T09:50:16;7.80;99.90
28520;DHT22;15732;48.534;20.382;2024-03-08T09:52:47;7.90;99.90
28520;DHT22;15732;48.534;20.382;2024-03-08T09:55:16;7.90;99.90
28520;DHT22;15732;48.534;20.382;2024-03-08T09:57:52;7.90;99.90
28520;DHT22;15732;48.534;20.382;2024-03-08T10:00:37;7.90;99.90
28520;DHT22;15732;48.534;20.382;2024-03-08T10:03:04;8.00;99.90
28520;DHT22;15732;48.534;20.382;2024-03-08T10:05:32;8.00;99.90
28520;DHT22;15732;48.534;20.382;2024-03-08T10:07:59;8.00;99.90
28520;DHT22;15732;48.534;20.382;2024-03-08T10:10:30;8.10;99.90
28520;DHT22;15732;48.534;20.382;2024-03-08T10:13:01;8.10;99.90
28520;DHT22;15732;48.534;20.382;2024-03-08T10:15:29;8.10;99.90
28520;DHT22;15732;48.534;20.382;2024-03-08T10:17:56;8.10;99.90
28520;DHT22;15732;48.534;20.382;2024-03-08T10:20:23;8.10;99.90
28520;DHT22;15732;48.534;20.382;2024-03-08T10:22:50;8.10;99.90
28520;DHT22;15732;48.534;20.382;2024-03-08T10:25:20;8.10;99.90
28520;DHT22;15732;48.534;20.382;2024-03-08T10:27:47;8.20;99.90
28520;DHT22;15732;48.534;20.382;2024-03-08T10:30:15;8.10;99.90
28520;DHT22;15732;48.534;20.382;2024-03-08T10:32:46;8.10;99.90
28520;DHT22;15732;48.534;20.382;2024-03-08T10:35:14;8.10;99.90
28520;DHT22;15732;48.534;20.382;2024-03-08T10:37:48;8.20;99.90
28520;DHT22;15732;48.534;20.382;2024-03-08T10:40:20;8.20;99.90
28520;DHT22;15732;48.534;20.382;2024-03-08T10:42:57;8.20;99.90
28520;DHT22;15732;48.534;20.382;2024-03-08T10:45:40;8.20;99.90
28520;DHT22;15732;48.534;20.382;2024-03-08T10:50:44;8.30;99.90
28520;DHT22;15732;48.534;20.382;2024-03-08T10:53:18;8.40;99.90
28520;DHT22;15732;48.534;20.382;2024-03-08T10:55:49;8.40;99.90
28520;DHT22;15732;48.534;20.382;2024-03-08T10:58:24;8.50;99.90
28520;DHT22;15732;48.534;20.382;2024-03-08T11:00:56;8.50;99.90
28520;DHT22;15732;48.534;20.382;2024-03-08T11:06:21;8.50;99.90
28520;DHT22;15732;48.534;20.382;2024-03-08T11:08:49;8.50;99.90
28520;DHT22;15732;48.534;20.382;2024-03-08T11:11:30;8.50;99.90
28520;DHT22;15732;48.534;20.382;2024-03-08T11:13:58;8.50;99.90
28520;DHT22;15732;48.534;20.382;2024-03-08T11:19:05;8.50;99.90
28520;DHT22;15732;48.534;20.382;2024-03-08T11:21:33;8.50;99.90
28520;DHT22;15732;48.534;20.382;2024-03-08T11:24:00;8.50;99.90
28520;DHT22;15732;48.534;20.382;2024-03-08T11:26:32;8.50;99.90
28520;DHT22;15732;48.534;20.382;2024-03-08T11:32:12;8.60;99.90
28520;DHT22;15732;48.534;20.382;2024-03-08T11:34:47;8.60;99.90
28520;DHT22;15732;48.534;20.382;2024-03-08T11:37:20;8.60;99.90
28520;DHT22;15732;48.534;20.382;2024-03-08T11:39:51;8.60;99.90
28520;DHT22;15732;48.534;20.382;2024-03-08T11:42:19;8.60;99.90
28520;DHT22;15732;48.534;20.382;2024-03-08T11:44:46;8.60;99.90
28520;DHT22;15732;48.534;20.382;2024-03-08T11:47:15;8.60;99.90
28520;DHT22;15732;48.534;20.382;2024-03-08T11:49:46;8.60;99.90
28520;DHT22;15732;48.534;20.382;2024-03-08T11:52:16;8.60;99.90
28520;DHT22;15732;48.534;20.382;2024-03-08T11:54:54;8.60;99.90
28520;DHT22;15732;48.534;20.382;2024-03-08T11:57:24;8.60;99.90
28520;DHT22;15732;48.534;20.382;2024-03-08T11:59:51;8.60;99.90
28520;DHT22;15732;48.534;20.382;2024-03-08T12:02:18;8.50;99.90
28520;DHT22;15732;48.534;20.382;2024-03-08T12:04:45;8.50;99.90
28520;DHT22;15732;48.534;20.382;2024-03-08T12:07:13;8.60;99.90
28520;DHT22;15732;48.534;20.382;2024-03-08T12:09:40;8.60;99.90
28520;DHT22;15732;48.534;20.382;2024-03-08T12:12:13;8.60;99.90
28520;DHT22;15732;48.534;20.382;2024-03-08T12:14:43;8.60;99.90
28520;DHT22;15732;48.534;20.382;2024-03-08T12:17:14;8.60;99.90
28520;DHT22;15732;48.534;20.382;2024-03-08T12:19:47;8.60;99.90
28520;DHT22;15732;48.534;20.382;2024-03-08T12:22:14;8.70;99.90
28520;DHT22;15732;48.534;20.382;2024-03-08T12:24:42;8.70;99.90
28520;DHT22;15732;48.534;20.382;2024-03-08T12:27:20;8.70;99.90
28520;DHT22;15732;48.534;20.382;2024-03-08T12:29:47;8.70;99.90
28520;DHT22;15732;48.534;20.382;2024-03-08T12:32:15;8.70;99.90
28520;DHT22;15732;48.534;20.382;2024-03-08T12:34:52;8.70;99.90
28520;DHT22;15732;48.534;20.382;2024-03-08T12:37:20;8.70;99.90
28520;DHT22;15732;48.534;20.382;2024-03-08T12:39:55;8.80;99.90
28520;DHT22;15732;48.534;20.382;2024-03-08T12:42:22;8.80;99.90
28520;DHT22;15732;48.534;20.382;2024-03-08T12:44:53;8.80;99.90
28520;DHT22;15732;48.534;20.382;2024-03-08T12:47:20;8.80;99.90
28520;DHT22;15732;48.534;20.382;2024-03-08T12:49:51;8.80;99.90
28520;DHT22;15732;48.534;20.382;2024-03-08T12:52:19;8.80;99.90
28520;DHT22;15732;48.534;20.382;2024-03-08T12:54:46;8.80;99.90
28520;DHT22;15732;48.534;20.382;2024-03-08T12:57:14;8.80;99.90
28520;DHT22;15732;48.534;20.382;2024-03-08T12:59:41;8.80;99.90
28520;DHT22;15732;48.534;20.382;2024-03-08T13:02:09;8.80;99.90
28520;DHT22;15732;48.534;20.382;2024-03-08T13:04:37;8.80;99.90
28520;DHT22;15732;48.534;20.382;2024-03-08T13:07:05;8.90;99.90
28520;DHT22;15732;48.534;20.382;2024-03-08T13:09:36;8.90;99.90
28520;DHT22;15732;48.534;20.382;2024-03-08T13:12:04;8.90;99.90
28520;DHT22;15732;48.534;20.382;2024-03-08T13:14:32;8.90;99.90
28520;DHT22;15732;48.534;20.382;2024-03-08T13:17:02;8.90;99.90
28520;DHT22;15732;48.534;20.382;2024-03-08T13:19:30;8.90;99.90
28520;DHT22;15732;48.534;20.382;2024-03-08T13:22:01;8.90;99.90
28520;DHT22;15732;48.534;20.382;2024-03-08T13:24:31;9.00;99.90
28520;DHT22;15732;48.534;20.382;2024-03-08T13:26:58;9.00;99.90
28520;DHT22;15732;48.534;20.382;2024-03-08T13:29:26;9.00;99.90
28520;DHT22;15732;48.534;20.382;2024-03-08T13:31:53;9.00;99.90
28520;DHT22;15732;48.534;20.382;2024-03-08T13:34:23;9.00;99.90
28520;DHT22;15732;48.534;20.382;2024-03-08T13:36:56;9.00;99.90
28520;DHT22;15732;48.534;20.382;2024-03-08T13:39:26;9.00;99.90
28520;DHT22;15732;48.534;20.382;2024-03-08T13:41:55;9.00;99.90
28520;DHT22;15732;48.534;20.382;2024-03-08T13:44:23;9.00;99.90
28520;DHT22;15732;48.534;20.382;2024-03-08T13:46:52;9.00;99.90
28520;DHT22;15732;48.534;20.382;2024-03-08T13:49:22;9.00;99.90
28520;DHT22;15732;48.534;20.382;2024-03-08T13:51:52;9.00;99.90
28520;DHT22;15732;48.534;20.382;2024-03-08T13:54:24;9.00;99.90
28520;DHT22;15732;48.534;20.382;2024-03-08T13:56:51;9.10;99.90
28520;DHT22;15732;48.534;20.382;2024-03-08T13:59:21;9.10;99.90
28520;DHT22;15732;48.534;20.382;2024-03-08T14:01:51;9.10;99.90
28520;DHT22;15732;48.534;20.382;2024-03-08T14:04:22;9.10;99.90
28520;DHT22;15732;48.534;20.382;2024-03-08T14:06:50;9.10;99.90
28520;DHT22;15732;48.534;20.382;2024-03-08T14:09:26;9.10;99.90
28520;DHT22;15732;48.534;20.382;2024-03-08T14:11:55;9.10;99.90
28520;DHT22;15732;48.534;20.382;2024-03-08T14:14:22;9.10;99.90
28520;DHT22;15732;48.534;20.382;2024-03-08T14:16:49;9.10;99.90
28520;DHT22;15732;48.534;20.382;2024-03-08T14:19:21;9.10;99.90
28520;DHT22;15732;48.534;20.382;2024-03-08T14:21:47;9.10;99.90
28520;DHT22;15732;48.534;20.382;2024-03-08T14:24:20;9.10;99.90
28520;DHT22;15732;48.534;20.382;2024-03-08T14:26:47;9.10;99.90
28520;DHT22;15732;48.534;20.382;2024-03-08T14:29:18;9.10;99.90
28520;DHT22;15732;48.534;20.382;2024-03-08T14:31:45;9.10;99.90
28520;DHT22;15732;48.534;20.382;2024-03-08T14:34:12;9.10;99.90
28520;DHT22;15732;48.534;20.382;2024-03-08T14:36:41;9.10;99.90
28520;DHT22;15732;48.534;20.382;2024-03-08T14:39:08;9.10;99.90
28520;DHT22;15732;48.534;20.382;2024-03-08T14:41:35;9.10;99.90
28520;DHT22;15732;48.534;20.382;2024-03-08T14:44:03;9.00;99.90
28520;DHT22;15732;48.534;20.382;2024-03-08T14:46:30;9.00;99.90
28520;DHT22;15732;48.534;20.382;2024-03-08T14:48:58;9.00;99.90
28520;DHT22;15732;48.534;20.382;2024-03-08T14:51:26;9.00;99.90
28520;DHT22;15732;48.534;20.382;2024-03-08T14:53:57;9.00;99.90
28520;DHT22;15732;48.534;20.382;2024-03-08T14:56:28;9.00;99.90
28520;DHT22;15732;48.534;20.382;2024-03-08T14:58:58;9.00;99.90
28520;DHT22;15732;48.534;20.382;2024-03-08T15:01:26;9.00;99.90
28520;DHT22;15732;48.534;20.382;2024-03-08T15:03:58;9.00;99.90
28520;DHT22;15732;48.534;20.382;2024-03-08T15:06:33;9.00;99.90
28520;DHT22;15732;48.534;20.382;2024-03-08T15:09:05;9.00;99.90
28520;DHT22;15732;48.534;20.382;2024-03-08T15:11:46;9.00;99.90
28520;DHT22;15732;48.534;20.382;2024-03-08T15:14:15;9.00;99.90
28520;DHT22;15732;48.534;20.382;2024-03-08T15:16:46;8.90;99.90
28520;DHT22;15732;48.534;20.382;2024-03-08T15:19:14;9.00;99.90
28520;DHT22;15732;48.534;20.382;2024-03-08T15:21:41;8.90;99.90
28520;DHT22;15732;48.534;20.382;2024-03-08T15:24:12;8.90;99.90
28520;DHT22;15732;48.534;20.382;2024-03-08T15:26:41;8.90;99.90
28520;DHT22;15732;48.534;20.382;2024-03-08T15:29:10;8.90;99.90
28520;DHT22;15732;48.534;20.382;2024-03-08T15:31:39;8.90;99.90
28520;DHT22;15732;48.534;20.382;2024-03-08T15:34:10;8.90;99.90
28520;DHT22;15732;48.534;20.382;2024-03-08T15:36:38;8.90;99.90
28520;DHT22;15732;48.534;20.382;2024-03-08T15:39:09;8.80;99.90
28520;DHT22;15732;48.534;20.382;2024-03-08T15:41:37;8.80;99.90
28520;DHT22;15732;48.534;20.382;2024-03-08T15:44:04;8.80;99.90
28520;DHT22;15732;48.534;20.382;2024-03-08T15:46:31;8.80;99.90
28520;DHT22;15732;48.534;20.382;2024-03-08T15:49:02;8.80;99.90
28520;DHT22;15732;48.534;20.382;2024-03-08T15:51:29;8.80;99.90